sensor_id;sensor_type;location;lat;lon;timestamp;P1;durP1;ratioP1;P2;durP2;ratioP2
26098;SDS011;13860;52.370;6.764;2023-02-15T00:03:52;40.47;;;16.92;;
26098;SDS011;13860;52.370;6.764;2023-02-15T00:06:58;34.92;;;17.30;;
26098;SDS011;13860;52.370;6.764;2023-02-15T00:10:05;38.97;;;18.05;;
26098;SDS011;13860;52.370;6.764;2023-02-15T00:13:10;34.53;;;17.27;;
26098;SDS011;13860;52.370;6.764;2023-02-15T00:16:15;32.70;;;17.27;;
26098;SDS011;13860;52.370;6.764;2023-02-15T00:19:20;35.22;;;17.42;;
26098;SDS011;13860;52.370;6.764;2023-02-15T00:22:28;37.85;;;18.05;;
26098;SDS011;13860;52.370;6.764;2023-02-15T00:25:32;36.47;;;17.80;;
26098;SDS011;13860;52.370;6.764;2023-02-15T00:28:38;40.00;;;17.50;;
26098;SDS011;13860;52.370;6.764;2023-02-15T00:31:42;38.58;;;18.17;;
26098;SDS011;13860;52.370;6.764;2023-02-15T00:34:48;42.85;;;19.00;;
26098;SDS011;13860;52.370;6.764;2023-02-15T00:37:54;43.20;;;19.20;;
26098;SDS011;13860;52.370;6.764;2023-02-15T00:41:01;42.17;;;18.35;;
26098;SDS011;13860;52.370;6.764;2023-02-15T00:44:07;35.45;;;17.85;;
26098;SDS011;13860;52.370;6.764;2023-02-15T00:47:13;36.15;;;18.42;;
26098;SDS011;13860;52.370;6.764;2023-02-15T00:50:17;41.20;;;19.00;;
26098;SDS011;13860;52.370;6.764;2023-02-15T00:53:29;40.92;;;18.38;;
26098;SDS011;13860;52.370;6.764;2023-02-15T00:56:33;32.60;;;17.92;;
26098;SDS011;13860;52.370;6.764;2023-02-15T00:59:40;41.72;;;20.25;;
26098;SDS011;13860;52.370;6.764;2023-02-15T01:02:44;41.25;;;19.40;;
26098;SDS011;13860;52.370;6.764;2023-02-15T01:05:50;42.88;;;21.20;;
26098;SDS011;13860;52.370;6.764;2023-02-15T01:12:02;44.38;;;20.40;;
26098;SDS011;13860;52.370;6.764;2023-02-15T01:15:06;40.95;;;18.58;;
26098;SDS011;13860;52.370;6.764;2023-02-15T01:18:13;44.85;;;20.75;;
26098;SDS011;13860;52.370;6.764;2023-02-15T01:21:19;42.72;;;20.10;;
26098;SDS011;13860;52.370;6.764;2023-02-15T01:24:27;36.45;;;18.98;;
26098;SDS011;13860;52.370;6.764;2023-02-15T01:27:31;46.40;;;19.83;;
26098;SDS011;13860;52.370;6.764;2023-02-15T01:30:37;43.28;;;20.92;;
26098;SDS011;13860;52.370;6.764;2023-02-15T01:33:42;53.10;;;21.67;;
26098;SDS011;13860;52.370;6.764;2023-02-15T01:36:48;48.53;;;22.00;;
26098;SDS011;13860;52.370;6.764;2023-02-15T01:39:53;39.63;;;19.92;;
26098;SDS011;13860;52.370;6.764;2023-02-15T01:42:59;43.15;;;20.92;;
26098;SDS011;13860;52.370;6.764;2023-02-15T01:46:04;45.75;;;20.63;;
26098;SDS011;13860;52.370;6.764;2023-02-15T01:49:11;42.28;;;20.27;;
26098;SDS011;13860;52.370;6.764;2023-02-15T01:52:18;54.05;;;20.08;;
26098;SDS011;13860;52.370;6.764;2023-02-15T01:55:29;49.13;;;21.73;;
26098;SDS011;13860;52.370;6.764;2023-02-15T01:58:37;42.88;;;19.95;;
26098;SDS011;13860;52.370;6.764;2023-02-15T02:01:43;46.42;;;20.25;;
26098;SDS011;13860;52.370;6.764;2023-02-15T02:04:49;48.00;;;21.38;;
26098;SDS011;13860;52.370;6.764;2023-02-15T02:07:57;47.50;;;18.58;;
26098;SDS011;13860;52.370;6.764;2023-02-15T02:11:08;45.42;;;21.35;;
26098;SDS011;13860;52.370;6.764;2023-02-15T02:14:15;41.47;;;19.08;;
26098;SDS011;13860;52.370;6.764;2023-02-15T02:17:21;52.63;;;21.58;;
26098;SDS011;13860;52.370;6.764;2023-02-15T02:24:13;50.45;;;21.80;;
26098;SDS011;13860;52.370;6.764;2023-02-15T02:27:36;47.60;;;20.02;;
26098;SDS011;13860;52.370;6.764;2023-02-15T02:30:48;47.00;;;20.60;;
26098;SDS011;13860;52.370;6.764;2023-02-15T02:34:25;40.95;;;18.88;;
26098;SDS011;13860;52.370;6.764;2023-02-15T02:37:34;42.92;;;19.60;;
26098;SDS011;13860;52.370;6.764;2023-02-15T02:40:52;42.78;;;19.75;;
26098;SDS011;13860;52.370;6.764;2023-02-15T02:44:03;44.72;;;19.83;;
26098;SDS011;13860;52.370;6.764;2023-02-15T02:47:17;40.33;;;18.92;;
26098;SDS011;13860;52.370;6.764;2023-02-15T02:50:27;41.05;;;20.00;;
26098;SDS011;13860;52.370;6.764;2023-02-15T02:53:34;45.70;;;20.02;;
26098;SDS011;13860;52.370;6.764;2023-02-15T02:56:40;49.53;;;21.00;;
26098;SDS011;13860;52.370;6.764;2023-02-15T02:59:49;45.78;;;21.67;;
26098;SDS011;13860;52.370;6.764;2023-02-15T03:02:56;46.80;;;21.95;;
26098;SDS011;13860;52.370;6.764;2023-02-15T03:06:10;49.78;;;20.17;;
26098;SDS011;13860;52.370;6.764;2023-02-15T03:09:21;49.50;;;21.30;;
26098;SDS011;13860;52.370;6.764;2023-02-15T03:12:38;45.72;;;20.35;;
26098;SDS011;13860;52.370;6.764;2023-02-15T03:15:43;49.25;;;21.13;;
26098;SDS011;13860;52.370;6.764;2023-02-15T03:19:05;46.20;;;20.15;;
26098;SDS011;13860;52.370;6.764;2023-02-15T03:22:14;44.35;;;19.70;;
26098;SDS011;13860;52.370;6.764;2023-02-15T03:25:25;44.20;;;19.58;;
26098;SDS011;13860;52.370;6.764;2023-02-15T03:28:33;41.00;;;19.88;;
26098;SDS011;13860;52.370;6.764;2023-02-15T03:31:45;47.75;;;19.70;;
26098;SDS011;13860;52.370;6.764;2023-02-15T03:34:53;38.28;;;17.30;;
26098;SDS011;13860;52.370;6.764;2023-02-15T03:38:01;41.03;;;18.52;;
26098;SDS011;13860;52.370;6.764;2023-02-15T03:41:06;40.05;;;18.80;;
26098;SDS011;13860;52.370;6.764;2023-02-15T03:44:18;38.97;;;18.55;;
26098;SDS011;13860;52.370;6.764;2023-02-15T03:47:26;47.63;;;18.10;;
26098;SDS011;13860;52.370;6.764;2023-02-15T03:50:35;35.92;;;18.13;;
26098;SDS011;13860;52.370;6.764;2023-02-15T03:54:08;41.15;;;18.40;;
26098;SDS011;13860;52.370;6.764;2023-02-15T03:57:17;38.45;;;17.38;;
26098;SDS011;13860;52.370;6.764;2023-02-15T04:00:37;38.33;;;18.17;;
26098;SDS011;13860;52.370;6.764;2023-02-15T04:04:03;43.25;;;17.25;;
26098;SDS011;13860;52.370;6.764;2023-02-15T04:07:12;38.85;;;18.92;;
26098;SDS011;13860;52.370;6.764;2023-02-15T04:10:19;42.28;;;18.25;;
26098;SDS011;13860;52.370;6.764;2023-02-15T04:13:36;45.42;;;18.98;;
26098;SDS011;13860;52.370;6.764;2023-02-15T04:16:43;36.85;;;18.77;;
26098;SDS011;13860;52.370;6.764;2023-02-15T04:19:45;41.30;;;18.55;;
26098;SDS011;13860;52.370;6.764;2023-02-15T04:23:05;37.75;;;17.90;;
26098;SDS011;13860;52.370;6.764;2023-02-15T04:26:25;40.83;;;18.30;;
26098;SDS011;13860;52.370;6.764;2023-02-15T04:29:31;46.10;;;19.92;;
26098;SDS011;13860;52.370;6.764;2023-02-15T04:32:35;37.35;;;17.90;;
26098;SDS011;13860;52.370;6.764;2023-02-15T04:35:42;40.42;;;18.13;;
26098;SDS011;13860;52.370;6.764;2023-02-15T04:38:47;37.33;;;17.55;;
26098;SDS011;13860;52.370;6.764;2023-02-15T04:41:55;41.55;;;18.63;;
26098;SDS011;13860;52.370;6.764;2023-02-15T04:44:59;48.08;;;19.75;;
26098;SDS011;13860;52.370;6.764;2023-02-15T04:48:06;41.55;;;19.00;;
26098;SDS011;13860;52.370;6.764;2023-02-15T04:51:10;43.13;;;18.52;;
26098;SDS011;13860;52.370;6.764;2023-02-15T04:54:16;44.63;;;19.45;;
26098;SDS011;13860;52.370;6.764;2023-02-15T04:57:21;39.22;;;18.95;;
26098;SDS011;13860;52.370;6.764;2023-02-15T05:00:27;37.92;;;17.98;;
26098;SDS011;13860;52.370;6.764;2023-02-15T05:03:31;41.20;;;19.67;;
26098;SDS011;13860;52.370;6.764;2023-02-15T05:06:37;42.35;;;17.67;;
26098;SDS011;13860;52.370;6.764;2023-02-15T05:09:41;40.30;;;17.77;;
26098;SDS011;13860;52.370;6.764;2023-02-15T05:12:49;44.65;;;18.58;;
26098;SDS011;13860;52.370;6.764;2023-02-15T05:15:53;39.83;;;19.42;;
26098;SDS011;13860;52.370;6.764;2023-02-15T05:18:59;38.70;;;18.55;;
26098;SDS011;13860;52.370;6.764;2023-02-15T05:22:03;37.67;;;18.08;;
26098;SDS011;13860;52.370;6.764;2023-02-15T05:25:09;41.42;;;17.85;;
26098;SDS011;13860;52.370;6.764;2023-02-15T05:28:40;41.33;;;18.10;;
26098;SDS011;13860;52.370;6.764;2023-02-15T05:31:46;38.40;;;18.88;;
26098;SDS011;13860;52.370;6.764;2023-02-15T05:34:50;39.42;;;17.30;;
26098;SDS011;13860;52.370;6.764;2023-02-15T05:37:56;36.03;;;17.40;;
26098;SDS011;13860;52.370;6.764;2023-02-15T05:40:59;32.80;;;17.08;;
26098;SDS011;13860;52.370;6.764;2023-02-15T05:44:07;36.13;;;17.25;;
26098;SDS011;13860;52.370;6.764;2023-02-15T05:47:11;40.33;;;17.67;;
26098;SDS011;13860;52.370;6.764;2023-02-15T05:50:17;35.95;;;16.73;;
26098;SDS011;13860;52.370;6.764;2023-02-15T05:53:21;36.15;;;16.88;;
26098;SDS011;13860;52.370;6.764;2023-02-15T05:56:27;37.15;;;17.50;;
26098;SDS011;13860;52.370;6.764;2023-02-15T06:02:39;39.03;;;16.95;;
26098;SDS011;13860;52.370;6.764;2023-02-15T06:05:43;41.47;;;17.92;;
26098;SDS011;13860;52.370;6.764;2023-02-15T06:08:48;38.05;;;17.17;;
26098;SDS011;13860;52.370;6.764;2023-02-15T06:11:52;31.88;;;16.20;;
26098;SDS011;13860;52.370;6.764;2023-02-15T06:15:00;36.42;;;17.80;;
26098;SDS011;13860;52.370;6.764;2023-02-15T06:18:04;43.15;;;18.88;;
26098;SDS011;13860;52.370;6.764;2023-02-15T06:21:10;34.75;;;17.02;;
26098;SDS011;13860;52.370;6.764;2023-02-15T06:24:14;35.42;;;17.58;;
26098;SDS011;13860;52.370;6.764;2023-02-15T06:27:20;32.75;;;17.30;;
26098;SDS011;13860;52.370;6.764;2023-02-15T06:30:26;41.63;;;17.10;;
26098;SDS011;13860;52.370;6.764;2023-02-15T06:33:32;39.65;;;17.40;;
26098;SDS011;13860;52.370;6.764;2023-02-15T06:36:36;42.65;;;20.80;;
26098;SDS011;13860;52.370;6.764;2023-02-15T06:39:42;38.13;;;19.08;;
26098;SDS011;13860;52.370;6.764;2023-02-15T06:42:46;40.13;;;18.00;;
26098;SDS011;13860;52.370;6.764;2023-02-15T06:45:53;38.38;;;17.52;;
26098;SDS011;13860;52.370;6.764;2023-02-15T06:48:57;35.75;;;17.85;;
26098;SDS011;13860;52.370;6.764;2023-02-15T06:52:03;34.45;;;16.67;;
26098;SDS011;13860;52.370;6.764;2023-02-15T06:55:07;38.47;;;17.02;;
26098;SDS011;13860;52.370;6.764;2023-02-15T06:58:13;36.38;;;17.13;;
26098;SDS011;13860;52.370;6.764;2023-02-15T07:01:19;37.50;;;17.25;;
26098;SDS011;13860;52.370;6.764;2023-02-15T07:04:25;41.15;;;16.38;;
26098;SDS011;13860;52.370;6.764;2023-02-15T07:07:31;35.95;;;17.10;;
26098;SDS011;13860;52.370;6.764;2023-02-15T07:10:37;34.92;;;17.40;;
26098;SDS011;13860;52.370;6.764;2023-02-15T07:13:40;32.78;;;18.25;;
26098;SDS011;13860;52.370;6.764;2023-02-15T07:16:47;33.88;;;17.10;;
26098;SDS011;13860;52.370;6.764;2023-02-15T07:19:51;33.22;;;16.27;;
26098;SDS011;13860;52.370;6.764;2023-02-15T07:22:57;38.58;;;17.27;;
26098;SDS011;13860;52.370;6.764;2023-02-15T07:26:01;42.75;;;17.92;;
26098;SDS011;13860;52.370;6.764;2023-02-15T07:29:07;35.08;;;16.75;;
26098;SDS011;13860;52.370;6.764;2023-02-15T07:32:13;40.25;;;18.50;;
26098;SDS011;13860;52.370;6.764;2023-02-15T07:35:19;38.20;;;17.15;;
26098;SDS011;13860;52.370;6.764;2023-02-15T07:38:23;37.67;;;17.15;;
26098;SDS011;13860;52.370;6.764;2023-02-15T07:41:30;37.83;;;19.08;;
26098;SDS011;13860;52.370;6.764;2023-02-15T07:44:34;41.50;;;18.75;;
26098;SDS011;13860;52.370;6.764;2023-02-15T07:47:42;37.95;;;17.38;;
26098;SDS011;13860;52.370;6.764;2023-02-15T07:50:46;36.25;;;17.70;;
26098;SDS011;13860;52.370;6.764;2023-02-15T07:53:51;39.25;;;17.83;;
26098;SDS011;13860;52.370;6.764;2023-02-15T07:56:56;43.47;;;18.80;;
26098;SDS011;13860;52.370;6.764;2023-02-15T08:00:02;36.80;;;17.75;;
26098;SDS011;13860;52.370;6.764;2023-02-15T08:03:15;44.85;;;20.05;;
26098;SDS011;13860;52.370;6.764;2023-02-15T08:06:21;42.75;;;20.23;;
26098;SDS011;13860;52.370;6.764;2023-02-15T08:09:26;46.80;;;19.77;;
26098;SDS011;13860;52.370;6.764;2023-02-15T08:12:32;49.75;;;21.13;;
26098;SDS011;13860;52.370;6.764;2023-02-15T08:15:35;49.20;;;21.65;;
26098;SDS011;13860;52.370;6.764;2023-02-15T08:18:43;54.13;;;23.88;;
26098;SDS011;13860;52.370;6.764;2023-02-15T08:21:48;63.35;;;24.23;;
26098;SDS011;13860;52.370;6.764;2023-02-15T08:24:55;62.10;;;24.23;;
26098;SDS011;13860;52.370;6.764;2023-02-15T08:27:59;58.47;;;26.67;;
26098;SDS011;13860;52.370;6.764;2023-02-15T08:31:05;70.30;;;27.42;;
26098;SDS011;13860;52.370;6.764;2023-02-15T08:34:13;75.20;;;29.20;;
26098;SDS011;13860;52.370;6.764;2023-02-15T08:37:21;80.47;;;29.90;;
26098;SDS011;13860;52.370;6.764;2023-02-15T08:40:26;83.43;;;29.85;;
26098;SDS011;13860;52.370;6.764;2023-02-15T08:43:32;76.75;;;31.27;;
26098;SDS011;13860;52.370;6.764;2023-02-15T08:46:36;87.28;;;30.75;;
26098;SDS011;13860;52.370;6.764;2023-02-15T08:49:46;88.10;;;31.10;;
26098;SDS011;13860;52.370;6.764;2023-02-15T08:52:50;101.78;;;34.83;;
26098;SDS011;13860;52.370;6.764;2023-02-15T08:55:56;110.68;;;36.08;;
26098;SDS011;13860;52.370;6.764;2023-02-15T08:59:00;106.38;;;36.47;;
26098;SDS011;13860;52.370;6.764;2023-02-15T09:02:09;95.25;;;35.58;;
26098;SDS011;13860;52.370;6.764;2023-02-15T09:05:15;90.25;;;34.58;;
26098;SDS011;13860;52.370;6.764;2023-02-15T09:08:21;72.93;;;31.38;;
26098;SDS011;13860;52.370;6.764;2023-02-15T09:14:31;64.63;;;28.65;;
26098;SDS011;13860;52.370;6.764;2023-02-15T09:17:36;72.10;;;27.77;;
26098;SDS011;13860;52.370;6.764;2023-02-15T09:20:44;70.53;;;28.15;;
26098;SDS011;13860;52.370;6.764;2023-02-15T09:23:49;64.95;;;25.30;;
26098;SDS011;13860;52.370;6.764;2023-02-15T09:26:57;55.42;;;24.92;;
26098;SDS011;13860;52.370;6.764;2023-02-15T09:33:06;53.83;;;22.83;;
26098;SDS011;13860;52.370;6.764;2023-02-15T09:39:22;52.28;;;24.27;;
26098;SDS011;13860;52.370;6.764;2023-02-15T09:42:34;63.90;;;25.02;;
26098;SDS011;13860;52.370;6.764;2023-02-15T09:45:51;53.85;;;23.75;;
26098;SDS011;13860;52.370;6.764;2023-02-15T09:49:13;50.10;;;24.33;;
26098;SDS011;13860;52.370;6.764;2023-02-15T09:52:37;51.60;;;23.60;;
26098;SDS011;13860;52.370;6.764;2023-02-15T09:55:51;48.90;;;23.38;;
26098;SDS011;13860;52.370;6.764;2023-02-15T09:59:05;52.33;;;25.30;;
26098;SDS011;13860;52.370;6.764;2023-02-15T10:02:20;59.03;;;24.77;;
26098;SDS011;13860;52.370;6.764;2023-02-15T10:05:41;50.35;;;25.40;;
26098;SDS011;13860;52.370;6.764;2023-02-15T10:09:05;61.38;;;25.90;;
26098;SDS011;13860;52.370;6.764;2023-02-15T10:12:37;54.90;;;25.52;;
26098;SDS011;13860;52.370;6.764;2023-02-15T10:15:53;53.05;;;23.25;;
26098;SDS011;13860;52.370;6.764;2023-02-15T10:19:16;55.50;;;23.05;;
26098;SDS011;13860;52.370;6.764;2023-02-15T10:22:31;52.63;;;24.90;;
26098;SDS011;13860;52.370;6.764;2023-02-15T10:25:49;45.17;;;22.63;;
26098;SDS011;13860;52.370;6.764;2023-02-15T10:28:59;51.00;;;23.15;;
26098;SDS011;13860;52.370;6.764;2023-02-15T10:32:16;51.10;;;22.42;;
26098;SDS011;13860;52.370;6.764;2023-02-15T10:35:26;54.78;;;22.10;;
26098;SDS011;13860;52.370;6.764;2023-02-15T10:38:40;40.90;;;16.35;;
26098;SDS011;13860;52.370;6.764;2023-02-15T10:41:53;46.00;;;22.65;;
26098;SDS011;13860;52.370;6.764;2023-02-15T10:45:12;46.30;;;21.55;;
26098;SDS011;13860;52.370;6.764;2023-02-15T10:48:30;44.70;;;22.50;;
26098;SDS011;13860;52.370;6.764;2023-02-15T10:51:50;51.53;;;22.95;;
26098;SDS011;13860;52.370;6.764;2023-02-15T10:55:07;49.53;;;21.40;;
26098;SDS011;13860;52.370;6.764;2023-02-15T10:58:21;50.38;;;21.58;;
26098;SDS011;13860;52.370;6.764;2023-02-15T11:01:36;49.95;;;21.88;;
26098;SDS011;13860;52.370;6.764;2023-02-15T11:04:51;44.22;;;20.70;;
26098;SDS011;13860;52.370;6.764;2023-02-15T11:08:00;47.15;;;21.95;;
26098;SDS011;13860;52.370;6.764;2023-02-15T11:11:12;44.15;;;20.58;;
26098;SDS011;13860;52.370;6.764;2023-02-15T11:14:23;46.20;;;21.05;;
26098;SDS011;13860;52.370;6.764;2023-02-15T11:17:39;51.17;;;21.10;;
26098;SDS011;13860;52.370;6.764;2023-02-15T11:20:49;48.22;;;21.52;;
26098;SDS011;13860;52.370;6.764;2023-02-15T11:23:59;48.85;;;21.80;;
26098;SDS011;13860;52.370;6.764;2023-02-15T11:27:04;44.60;;;21.60;;
26098;SDS011;13860;52.370;6.764;2023-02-15T11:30:24;48.70;;;21.95;;
26098;SDS011;13860;52.370;6.764;2023-02-15T11:33:31;46.65;;;21.60;;
26098;SDS011;13860;52.370;6.764;2023-02-15T11:36:41;45.03;;;21.15;;
26098;SDS011;13860;52.370;6.764;2023-02-15T11:39:48;44.60;;;21.55;;
26098;SDS011;13860;52.370;6.764;2023-02-15T11:42:58;45.70;;;21.10;;
26098;SDS011;13860;52.370;6.764;2023-02-15T11:46:10;49.35;;;21.27;;
26098;SDS011;13860;52.370;6.764;2023-02-15T11:49:21;53.70;;;22.20;;
26098;SDS011;13860;52.370;6.764;2023-02-15T11:52:28;49.38;;;21.65;;
26098;SDS011;13860;52.370;6.764;2023-02-15T11:55:34;57.65;;;20.85;;
26098;SDS011;13860;52.370;6.764;2023-02-15T11:58:39;49.22;;;20.17;;
26098;SDS011;13860;52.370;6.764;2023-02-15T12:01:50;47.03;;;21.38;;
26098;SDS011;13860;52.370;6.764;2023-02-15T12:04:54;51.80;;;20.95;;
26098;SDS011;13860;52.370;6.764;2023-02-15T12:08:03;43.90;;;20.50;;
26098;SDS011;13860;52.370;6.764;2023-02-15T12:11:17;49.60;;;21.33;;
26098;SDS011;13860;52.370;6.764;2023-02-15T12:14:27;50.83;;;20.83;;
26098;SDS011;13860;52.370;6.764;2023-02-15T12:17:53;49.70;;;20.30;;
26098;SDS011;13860;52.370;6.764;2023-02-15T12:20:59;44.88;;;20.70;;
26098;SDS011;13860;52.370;6.764;2023-02-15T12:24:09;49.50;;;20.45;;
26098;SDS011;13860;52.370;6.764;2023-02-15T12:27:23;51.50;;;21.50;;
26098;SDS011;13860;52.370;6.764;2023-02-15T12:30:31;46.67;;;19.13;;
26098;SDS011;13860;52.370;6.764;2023-02-15T12:33:41;48.58;;;18.42;;
26098;SDS011;13860;52.370;6.764;2023-02-15T12:36:47;52.00;;;17.88;;
26098;SDS011;13860;52.370;6.764;2023-02-15T12:39:57;46.53;;;16.85;;
26098;SDS011;13860;52.370;6.764;2023-02-15T12:43:02;52.95;;;18.08;;
26098;SDS011;13860;52.370;6.764;2023-02-15T12:46:20;45.05;;;18.35;;
26098;SDS011;13860;52.370;6.764;2023-02-15T12:49:27;48.60;;;19.13;;
26098;SDS011;13860;52.370;6.764;2023-02-15T12:52:34;48.20;;;18.48;;
26098;SDS011;13860;52.370;6.764;2023-02-15T12:55:38;50.35;;;19.83;;
26098;SDS011;13860;52.370;6.764;2023-02-15T12:58:56;45.83;;;19.13;;
26098;SDS011;13860;52.370;6.764;2023-02-15T13:05:24;45.55;;;17.65;;
26098;SDS011;13860;52.370;6.764;2023-02-15T13:08:33;42.42;;;17.25;;
26098;SDS011;13860;52.370;6.764;2023-02-15T13:11:41;43.05;;;17.95;;
26098;SDS011;13860;52.370;6.764;2023-02-15T13:14:47;44.03;;;17.45;;
26098;SDS011;13860;52.370;6.764;2023-02-15T13:17:57;58.63;;;19.30;;
26098;SDS011;13860;52.370;6.764;2023-02-15T13:21:10;45.88;;;18.48;;
26098;SDS011;13860;52.370;6.764;2023-02-15T13:24:18;44.33;;;19.10;;
26098;SDS011;13860;52.370;6.764;2023-02-15T13:27:28;51.28;;;18.48;;
26098;SDS011;13860;52.370;6.764;2023-02-15T13:30:42;50.13;;;19.10;;
26098;SDS011;13860;52.370;6.764;2023-02-15T13:33:49;49.38;;;18.40;;
26098;SDS011;13860;52.370;6.764;2023-02-15T13:37:01;50.13;;;18.25;;
26098;SDS011;13860;52.370;6.764;2023-02-15T13:40:15;43.40;;;18.05;;
26098;SDS011;13860;52.370;6.764;2023-02-15T13:43:31;47.28;;;18.40;;
26098;SDS011;13860;52.370;6.764;2023-02-15T13:46:45;41.38;;;17.42;;
26098;SDS011;13860;52.370;6.764;2023-02-15T13:50:03;47.88;;;19.33;;
26098;SDS011;13860;52.370;6.764;2023-02-15T13:57:08;42.03;;;17.92;;
26098;SDS011;13860;52.370;6.764;2023-02-15T14:00:35;48.22;;;18.33;;
26098;SDS011;13860;52.370;6.764;2023-02-15T14:03:59;46.53;;;18.77;;
26098;SDS011;13860;52.370;6.764;2023-02-15T14:07:30;40.15;;;16.20;;
26098;SDS011;13860;52.370;6.764;2023-02-15T14:10:45;46.78;;;18.60;;
26098;SDS011;13860;52.370;6.764;2023-02-15T14:13:59;47.42;;;19.15;;
26098;SDS011;13860;52.370;6.764;2023-02-15T14:17:22;39.45;;;17.88;;
26098;SDS011;13860;52.370;6.764;2023-02-15T14:20:36;41.17;;;17.60;;
26098;SDS011;13860;52.370;6.764;2023-02-15T14:23:52;46.28;;;18.60;;
26098;SDS011;13860;52.370;6.764;2023-02-15T14:27:13;50.55;;;19.75;;
26098;SDS011;13860;52.370;6.764;2023-02-15T14:30:30;37.75;;;16.58;;
26098;SDS011;13860;52.370;6.764;2023-02-15T14:33:38;47.13;;;18.42;;
26098;SDS011;13860;52.370;6.764;2023-02-15T14:36:45;43.28;;;17.92;;
26098;SDS011;13860;52.370;6.764;2023-02-15T14:39:52;49.65;;;19.38;;
26098;SDS011;13860;52.370;6.764;2023-02-15T14:43:19;45.00;;;18.63;;
26098;SDS011;13860;52.370;6.764;2023-02-15T14:46:34;51.08;;;18.65;;
26098;SDS011;13860;52.370;6.764;2023-02-15T14:49:43;44.78;;;18.70;;
26098;SDS011;13860;52.370;6.764;2023-02-15T14:56:24;45.30;;;18.77;;
26098;SDS011;13860;52.370;6.764;2023-02-15T14:59:35;47.80;;;19.73;;
26098;SDS011;13860;52.370;6.764;2023-02-15T15:02:47;43.15;;;18.60;;
26098;SDS011;13860;52.370;6.764;2023-02-15T15:05:54;41.95;;;18.83;;
26098;SDS011;13860;52.370;6.764;2023-02-15T15:09:10;44.08;;;18.17;;
26098;SDS011;13860;52.370;6.764;2023-02-15T15:15:44;42.70;;;18.02;;
26098;SDS011;13860;52.370;6.764;2023-02-15T15:18:51;44.42;;;17.27;;
26098;SDS011;13860;52.370;6.764;2023-02-15T15:22:02;41.97;;;17.98;;
26098;SDS011;13860;52.370;6.764;2023-02-15T15:25:11;44.65;;;17.70;;
26098;SDS011;13860;52.370;6.764;2023-02-15T15:32:01;48.80;;;19.25;;
26098;SDS011;13860;52.370;6.764;2023-02-15T15:35:14;48.65;;;20.92;;
26098;SDS011;13860;52.370;6.764;2023-02-15T15:38:29;43.95;;;19.52;;
26098;SDS011;13860;52.370;6.764;2023-02-15T15:41:47;50.40;;;19.10;;
26098;SDS011;13860;52.370;6.764;2023-02-15T15:45:08;44.10;;;19.35;;
26098;SDS011;13860;52.370;6.764;2023-02-15T15:48:38;46.63;;;20.00;;
26098;SDS011;13860;52.370;6.764;2023-02-15T15:51:46;48.10;;;20.65;;
26098;SDS011;13860;52.370;6.764;2023-02-15T15:54:54;41.08;;;19.10;;
26098;SDS011;13860;52.370;6.764;2023-02-15T15:58:02;43.85;;;18.42;;
26098;SDS011;13860;52.370;6.764;2023-02-15T16:01:10;40.53;;;18.63;;
26098;SDS011;13860;52.370;6.764;2023-02-15T16:04:22;37.40;;;18.02;;
26098;SDS011;13860;52.370;6.764;2023-02-15T16:07:31;38.85;;;18.60;;
26098;SDS011;13860;52.370;6.764;2023-02-15T16:10:35;47.17;;;19.70;;
26098;SDS011;13860;52.370;6.764;2023-02-15T16:13:42;39.22;;;19.75;;
26098;SDS011;13860;52.370;6.764;2023-02-15T16:16:48;45.75;;;20.55;;
26098;SDS011;13860;52.370;6.764;2023-02-15T16:19:57;42.17;;;19.90;;
26098;SDS011;13860;52.370;6.764;2023-02-15T16:23:10;38.85;;;18.30;;
26098;SDS011;13860;52.370;6.764;2023-02-15T16:26:34;32.75;;;13.35;;
26098;SDS011;13860;52.370;6.764;2023-02-15T16:33:03;38.92;;;19.10;;
26098;SDS011;13860;52.370;6.764;2023-02-15T16:36:10;45.45;;;19.45;;
26098;SDS011;13860;52.370;6.764;2023-02-15T16:39:19;38.95;;;18.33;;
26098;SDS011;13860;52.370;6.764;2023-02-15T16:42:23;45.55;;;20.20;;
26098;SDS011;13860;52.370;6.764;2023-02-15T16:45:30;43.05;;;19.48;;
26098;SDS011;13860;52.370;6.764;2023-02-15T16:48:39;42.08;;;19.80;;
26098;SDS011;13860;52.370;6.764;2023-02-15T16:51:53;42.17;;;20.17;;
26098;SDS011;13860;52.370;6.764;2023-02-15T16:55:02;44.25;;;20.63;;
26098;SDS011;13860;52.370;6.764;2023-02-15T16:58:12;48.60;;;18.88;;
26098;SDS011;13860;52.370;6.764;2023-02-15T17:01:20;45.53;;;20.05;;
26098;SDS011;13860;52.370;6.764;2023-02-15T17:04:29;43.90;;;19.30;;
26098;SDS011;13860;52.370;6.764;2023-02-15T17:07:38;46.63;;;20.00;;
26098;SDS011;13860;52.370;6.764;2023-02-15T17:11:02;47.95;;;20.77;;
26098;SDS011;13860;52.370;6.764;2023-02-15T17:14:21;47.90;;;21.55;;
26098;SDS011;13860;52.370;6.764;2023-02-15T17:20:35;44.13;;;19.83;;
26098;SDS011;13860;52.370;6.764;2023-02-15T17:23:45;44.92;;;20.02;;
26098;SDS011;13860;52.370;6.764;2023-02-15T17:26:53;45.78;;;20.80;;
26098;SDS011;13860;52.370;6.764;2023-02-15T17:30:03;48.15;;;22.83;;
26098;SDS011;13860;52.370;6.764;2023-02-15T17:33:19;47.72;;;22.65;;
26098;SDS011;13860;52.370;6.764;2023-02-15T17:36:29;44.78;;;21.67;;
26098;SDS011;13860;52.370;6.764;2023-02-15T17:39:33;46.65;;;20.58;;
26098;SDS011;13860;52.370;6.764;2023-02-15T17:42:41;46.00;;;21.13;;
26098;SDS011;13860;52.370;6.764;2023-02-15T17:45:46;45.45;;;20.98;;
26098;SDS011;13860;52.370;6.764;2023-02-15T17:48:54;42.72;;;21.35;;
26098;SDS011;13860;52.370;6.764;2023-02-15T17:51:58;45.50;;;19.90;;
26098;SDS011;13860;52.370;6.764;2023-02-15T17:55:07;51.78;;;22.63;;
26098;SDS011;13860;52.370;6.764;2023-02-15T17:58:32;46.30;;;20.58;;
26098;SDS011;13860;52.370;6.764;2023-02-15T18:01:40;56.38;;;22.02;;
26098;SDS011;13860;52.370;6.764;2023-02-15T18:05:07;47.13;;;22.50;;
26098;SDS011;13860;52.370;6.764;2023-02-15T18:08:29;51.28;;;21.95;;
26098;SDS011;13860;52.370;6.764;2023-02-15T18:11:46;43.55;;;22.02;;
26098;SDS011;13860;52.370;6.764;2023-02-15T18:14:54;53.78;;;24.55;;
26098;SDS011;13860;52.370;6.764;2023-02-15T18:17:59;46.05;;;21.85;;
26098;SDS011;13860;52.370;6.764;2023-02-15T18:21:06;46.45;;;20.92;;
26098;SDS011;13860;52.370;6.764;2023-02-15T18:24:14;48.95;;;21.85;;
26098;SDS011;13860;52.370;6.764;2023-02-15T18:27:21;44.20;;;21.13;;
26098;SDS011;13860;52.370;6.764;2023-02-15T18:33:34;50.17;;;20.33;;
26098;SDS011;13860;52.370;6.764;2023-02-15T18:36:41;45.13;;;19.75;;
26098;SDS011;13860;52.370;6.764;2023-02-15T18:39:49;44.58;;;20.13;;
26098;SDS011;13860;52.370;6.764;2023-02-15T18:42:55;45.40;;;18.85;;
26098;SDS011;13860;52.370;6.764;2023-02-15T18:46:03;46.42;;;21.45;;
26098;SDS011;13860;52.370;6.764;2023-02-15T18:49:07;42.92;;;20.10;;
26098;SDS011;13860;52.370;6.764;2023-02-15T18:52:13;49.70;;;20.08;;
26098;SDS011;13860;52.370;6.764;2023-02-15T18:55:19;41.65;;;18.77;;
26098;SDS011;13860;52.370;6.764;2023-02-15T18:58:27;39.97;;;19.80;;
26098;SDS011;13860;52.370;6.764;2023-02-15T19:04:39;41.15;;;19.67;;
26098;SDS011;13860;52.370;6.764;2023-02-15T19:07:43;46.45;;;19.45;;
26098;SDS011;13860;52.370;6.764;2023-02-15T19:10:50;41.92;;;19.27;;
26098;SDS011;13860;52.370;6.764;2023-02-15T19:13:54;39.80;;;18.95;;
26098;SDS011;13860;52.370;6.764;2023-02-15T19:17:02;41.33;;;18.40;;
26098;SDS011;13860;52.370;6.764;2023-02-15T19:20:08;46.28;;;19.75;;